.
WxDataArchive / Data Records for 2009-04-13
2009-04-12 April 2009 2009-04-14

Data Records for Monday, 13 April 2009

Time	Temp	Chill	HIndex	Humid	Dewpt	 Wind 	HiWind	WindDir	Rain 	Barom 
-----	----	-----	------	-----	-----	------	------	-------	-----	----- 
00:00	39.5	35.2	39.5	48	21.5	6	13	112	0.00	30.240 
00:05	39.5	35.2	39.5	47	21.0	6	11	112	0.00	30.240 
00:10	39.3	35.7	39.3	48	21.3	5	10	112	0.00	30.240 
00:15	39.2	35.5	39.2	47	20.7	5	14	90	0.00	30.230 
00:20	39.1	34.7	39.1	47	20.6	6	12	90	0.00	30.230 
00:25	38.8	35.1	38.8	47	20.3	5	14	90	0.00	30.230 
00:30	38.6	34.8	38.6	47	20.1	5	12	112	0.00	30.225 
00:35	38.6	34.1	38.6	46	19.6	6	12	90	0.00	30.225 
00:40	38.5	34.7	38.5	46	19.5	5	10	90	0.00	30.225 
00:45	38.5	34.0	38.5	45	19.0	6	11	90	0.00	30.221 
00:50	38.5	34.0	38.5	45	19.0	6	14	90	0.00	30.221 
00:55	38.5	34.7	38.5	45	19.0	5	11	112	0.00	30.221 
01:00	38.3	33.7	38.3	45	18.8	6	12	90	0.00	30.209 
01:05	38.3	33.7	38.3	46	19.4	6	12	112	0.00	30.209 
01:10	38.2	33.6	38.2	46	19.3	6	12	112	0.00	30.209 
01:15	38.2	34.4	38.2	47	19.8	5	12	112	0.00	30.207 
01:20	38.2	33.6	38.2	48	20.3	6	13	90	0.00	30.207 
01:25	38.0	33.4	38.0	48	20.1	6	13	90	0.00	30.207 
01:30	38.0	33.4	38.0	49	20.6	6	13	112	0.00	30.202 
01:35	38.0	33.4	38.0	49	20.6	6	12	90	0.00	30.202 
01:40	37.9	34.9	37.9	50	20.9	4	9	112	0.00	30.202 
01:45	37.8	33.1	37.8	50	20.8	6	11	90	0.00	30.199 
01:50	37.8	33.9	37.8	49	20.4	5	12	90	0.00	30.199 
01:55	37.6	32.9	37.6	50	20.7	6	14	112	0.00	30.199 
02:00	37.6	32.9	37.6	50	20.7	6	12	112	0.00	30.193 
02:05	37.5	33.5	37.5	50	20.6	5	9	90	0.00	30.193 
02:10	37.3	33.3	37.3	51	20.9	5	10	112	0.00	30.193 
02:15	37.3	32.5	37.3	51	20.9	6	13	90	0.00	30.183 
02:20	37.2	33.2	37.2	51	20.8	5	14	90	0.00	30.183 
02:25	37.2	32.4	37.2	51	20.8	6	12	90	0.00	30.183 
02:30	37.2	33.2	37.2	52	21.2	5	10	90	0.00	30.180 
02:35	37.2	32.4	37.2	51	20.8	6	13	90	0.00	30.180 
02:40	37.2	33.2	37.2	52	21.2	5	12	112	0.00	30.180 
02:45	37.0	32.2	37.0	51	20.6	6	13	90	0.00	30.173 
02:50	37.0	32.9	37.0	51	20.6	5	11	112	0.00	30.173 
02:55	37.0	32.2	37.0	51	20.6	6	13	90	0.00	30.173 
03:00	37.0	32.2	37.0	52	21.0	6	14	112	0.00	30.162 
03:05	36.9	32.8	36.9	51	20.5	5	12	90	0.00	30.162 
03:10	36.9	32.1	36.9	51	20.5	6	13	90	0.00	30.162 
03:15	36.9	32.8	36.9	51	20.5	5	11	112	0.00	30.157 
03:20	36.8	31.9	36.8	51	20.4	6	14	90	0.00	30.157 
03:25	36.8	32.7	36.8	51	20.4	5	10	112	0.00	30.157 
03:30	36.8	31.9	36.8	51	20.4	6	11	90	0.00	30.148 
03:35	36.6	32.5	36.6	51	20.2	5	13	112	0.00	30.148 
03:40	36.6	31.7	36.6	51	20.2	6	12	112	0.00	30.148 
03:45	36.6	31.7	36.6	51	20.2	6	12	90	0.00	30.138 
03:50	36.6	32.5	36.6	51	20.2	5	14	90	0.00	30.138 
03:55	36.6	32.5	36.6	51	20.2	5	12	90	0.00	30.138 
04:00	36.6	31.7	36.6	51	20.2	6	10	112	0.00	30.128 
04:05	36.8	31.9	36.8	50	19.9	6	11	112	0.00	30.128 
04:10	36.8	32.7	36.8	50	19.9	5	13	112	0.00	30.128 
04:15	36.8	31.9	36.8	50	19.9	6	12	112	0.00	30.116 
04:20	36.8	31.3	36.8	50	19.9	7	17	112	0.00	30.116 
04:25	36.8	31.9	36.8	50	19.9	6	13	90	0.00	30.116 
04:30	36.8	31.9	36.8	51	20.4	6	13	90	0.00	30.116 
04:35	36.8	31.9	36.8	51	20.4	6	12	90	0.00	30.116 
04:40	36.6	31.7	36.6	51	20.2	6	13	90	0.00	30.116 
04:45	36.6	31.0	36.6	52	20.7	7	20	112	0.00	30.111 
04:50	36.5	31.6	36.5	53	21.0	6	11	112	0.00	30.111 
04:55	36.5	31.6	36.5	53	21.0	6	13	90	0.00	30.111 
05:00	36.5	31.6	36.5	54	21.5	6	10	90	0.00	30.111 
05:05	36.3	30.7	36.3	53	20.8	7	13	112	0.00	30.111 
05:10	36.3	32.1	36.3	54	21.3	5	10	112	0.00	30.111 
05:15	36.2	32.0	36.2	54	21.2	5	10	90	0.00	30.096 
05:20	36.2	30.6	36.2	53	20.7	7	18	112	0.00	30.096 
05:25	36.2	30.6	36.2	54	21.2	7	13	112	0.00	30.096 
05:30	36.2	32.0	36.2	54	21.2	5	11	112	0.00	30.096 
05:35	36.2	31.2	36.2	54	21.2	6	15	90	0.00	30.096 
05:40	36.0	31.8	36.0	54	21.0	5	11	112	0.00	30.096 
05:45	36.0	32.7	36.0	54	21.0	4	9	112	0.00	30.098 
05:50	36.2	32.9	36.2	54	21.2	4	10	112	0.00	30.098 
05:55	36.2	31.2	36.2	53	20.7	6	11	90	0.00	30.098 
06:00	36.2	32.9	36.2	53	20.7	4	10	90	0.00	30.087 
06:05	36.0	32.7	36.0	53	20.5	4	7	112	0.00	30.087 
06:10	36.0	31.8	36.0	53	20.5	5	10	112	0.00	30.087 
06:15	35.9	30.2	35.9	53	20.5	7	14	112	0.00	30.073 
06:20	35.9	30.9	35.9	53	20.5	6	14	90	0.00	30.073 
06:25	35.9	31.7	35.9	53	20.5	5	12	112	0.00	30.073 
06:30	35.9	30.9	35.9	52	20.0	6	13	112	0.00	30.083 
06:35	35.9	30.9	35.9	53	20.5	6	13	90	0.00	30.083 
06:40	35.9	32.6	35.9	53	20.5	4	11	90	0.00	30.083 
06:45	35.8	31.5	35.8	54	20.8	5	9	90	0.00	30.084 
06:50	35.8	32.5	35.8	55	21.2	4	11	90	0.00	30.084 
06:55	35.8	31.5	35.8	56	21.7	5	12	112	0.00	30.084 
07:00	35.6	31.3	35.6	56	21.5	5	12	112	0.00	30.069 
07:05	35.6	31.3	35.6	56	21.5	5	14	90	0.00	30.069 
07:10	35.6	31.3	35.6	56	21.5	5	12	112	0.00	30.069 
07:15	35.8	32.5	35.8	57	22.1	4	12	112	0.00	30.070 
07:20	35.8	31.5	35.8	57	22.1	5	13	112	0.00	30.070 
07:25	35.8	32.5	35.8	58	22.5	4	10	90	0.00	30.070 
07:30	35.8	32.5	35.8	58	22.5	4	10	112	0.00	30.072 
07:35	35.9	31.7	35.9	58	22.6	5	13	90	0.00	30.072 
07:40	35.9	31.7	35.9	58	22.6	5	10	112	0.00	30.072 
07:45	35.9	31.7	35.9	58	22.6	5	10	112	0.00	30.073 
07:50	36.0	31.8	36.0	58	22.7	5	11	90	0.00	30.073 
07:55	36.0	31.0	36.0	57	22.3	6	14	90	0.00	30.073 
08:00	36.2	30.6	36.2	57	22.5	7	12	90	0.00	30.069 
08:05	36.3	31.4	36.3	57	22.5	6	10	90	0.00	30.069 
08:10	36.3	31.4	36.3	56	22.1	6	14	112	0.00	30.069 
08:15	36.5	31.6	36.5	57	22.7	6	14	112	0.00	30.059 
08:20	36.5	31.6	36.5	56	22.3	6	12	112	0.00	30.059 
08:25	36.5	31.6	36.5	55	21.9	6	12	112	0.00	30.059 
08:30	36.6	31.7	36.6	54	21.5	6	12	112	0.00	30.054 
08:35	36.8	31.9	36.8	54	21.7	6	13	90	0.00	30.054 
08:40	36.8	32.7	36.8	55	22.2	5	13	112	0.00	30.054 
08:45	36.8	30.7	36.8	54	21.7	8	15	112	0.00	30.048 
08:50	36.9	31.4	36.9	53	21.4	7	16	112	0.00	30.048 
08:55	36.9	32.8	36.9	53	21.4	5	12	112	0.00	30.048 
09:00	36.9	32.1	36.9	53	21.4	6	16	112	0.00	30.039 
09:05	36.9	31.4	36.9	52	20.9	7	14	112	0.00	30.039 
09:10	37.0	30.9	37.0	52	21.0	8	16	90	0.00	30.039 
09:15	37.0	31.5	37.0	52	21.0	7	13	112	0.00	30.021 
09:20	37.2	31.2	37.2	51	20.8	8	16	112	0.00	30.021 
09:25	37.2	31.8	37.2	51	20.8	7	16	112	0.00	30.021 
09:30	37.3	32.5	37.3	51	20.9	6	12	112	0.00	30.013 
09:35	37.5	32.1	37.5	51	21.0	7	14	112	0.00	30.013 
09:40	37.5	32.8	37.5	50	20.6	6	13	112	0.00	30.013 
09:45	37.6	32.9	37.6	50	20.7	6	12	112	0.00	30.009 
09:50	37.8	33.9	37.8	51	21.3	5	11	90	0.00	30.009 
09:55	37.9	32.6	37.9	49	20.5	7	14	112	0.00	30.009 
10:00	38.2	33.0	38.2	50	21.2	7	14	112	0.00	30.004 
10:05	38.5	34.7	38.5	50	21.5	5	12	112	0.00	30.004 
10:10	38.8	34.3	38.8	48	20.8	6	15	112	0.00	30.004 
10:15	38.8	33.1	38.8	48	20.8	8	18	112	0.00	29.995 
10:20	38.9	33.8	38.9	48	20.9	7	15	112	0.00	29.995 
10:25	39.1	34.1	39.1	48	21.1	7	15	112	0.00	29.995 
10:30	39.1	34.7	39.1	47	20.6	6	15	90	0.00	29.993 
10:35	39.1	34.1	39.1	47	20.6	7	13	112	0.00	29.993 
10:40	39.1	33.5	39.1	48	21.1	8	19	112	0.00	29.993 
10:45	39.1	34.1	39.1	46	20.1	7	13	90	0.00	29.987 
10:50	39.2	34.2	39.2	46	20.2	7	13	90	0.00	29.987 
10:55	39.2	34.2	39.2	47	20.7	7	15	112	0.00	29.987 
11:00	39.3	33.7	39.3	46	20.3	8	16	90	0.00	29.992 
11:05	39.2	34.2	39.2	49	21.7	7	15	112	0.00	29.992 
11:10	39.1	34.7	39.1	50	22.0	6	13	90	0.00	29.992 
11:15	38.9	35.2	38.9	54	23.7	5	10	90	0.00	29.994 
11:20	38.6	34.1	38.6	58	25.1	6	18	90	0.00	29.994 
11:25	38.0	33.4	38.0	62	26.2	6	15	112	0.01	29.994 
11:30	37.5	32.8	37.5	65	26.8	6	14	90	0.01	29.983 
11:35	37.2	31.8	37.2	65	26.5	7	15	90	0.00	29.983 
11:40	37.0	32.2	37.0	66	26.7	6	12	90	0.01	29.983 
11:45	37.0	33.9	37.0	69	27.8	4	12	90	0.00	29.979 
11:50	36.9	32.8	36.9	69	27.7	5	11	112	0.01	29.979 
11:55	36.9	32.8	36.9	71	28.4	5	13	112	0.01	29.979 
12:00	36.8	32.7	36.8	72	28.6	5	12	90	0.01	29.965 
12:05	36.8	36.8	36.8	76	30.0	3	10	90	0.01	29.965 
12:10	36.6	33.4	36.6	76	29.8	4	11	112	0.02	29.965 
12:15	36.5	33.3	36.5	78	30.3	4	10	90	0.01	29.954 
12:20	36.5	33.3	36.5	77	30.0	4	10	112	0.01	29.954 
12:25	36.6	33.4	36.6	79	30.7	4	7	90	0.01	29.954 
12:30	36.6	32.5	36.6	77	30.1	5	12	112	0.01	29.952 
12:35	36.8	33.6	36.8	78	30.6	4	14	112	0.00	29.952 
12:40	36.8	32.7	36.8	79	30.9	5	10	112	0.01	29.952 
12:45	36.8	33.6	36.8	79	30.9	4	10	112	0.01	29.951 
12:50	36.9	33.7	36.9	80	31.3	4	11	112	0.00	29.951 
12:55	37.0	37.0	37.0	81	31.7	3	10	90	0.01	29.951 
13:00	37.0	32.2	37.0	80	31.4	6	12	112	0.01	29.936 
13:05	37.2	33.2	37.2	79	31.3	5	16	90	0.00	29.936 
13:10	37.2	33.2	37.2	80	31.6	5	14	112	0.01	29.936 
13:15	37.2	34.1	37.2	81	31.9	4	14	112	0.02	29.934 
13:20	37.2	33.2	37.2	80	31.6	5	13	112	0.01	29.934 
13:25	37.0	31.5	37.0	80	31.4	7	16	112	0.00	29.934 
13:30	37.0	32.9	37.0	81	31.7	5	12	90	0.02	29.918 
13:35	36.9	32.1	36.9	82	31.9	6	12	112	0.01	29.918 
13:40	37.0	32.2	37.0	83	32.3	6	14	90	0.00	29.918 
13:45	37.0	31.5	37.0	82	32.0	7	16	90	0.01	29.909 
13:50	36.9	32.1	36.9	82	31.9	6	12	90	0.02	29.909 
13:55	36.9	32.1	36.9	84	32.5	6	14	90	0.01	29.909 
14:00	36.8	31.3	36.8	83	32.1	7	16	112	0.02	29.915 
14:05	36.8	31.3	36.8	84	32.4	7	15	112	0.01	29.915 
14:10	36.8	32.7	36.8	85	32.7	5	11	112	0.01	29.915 
14:15	36.8	33.6	36.8	86	33.0	4	13	112	0.02	29.906 
14:20	36.9	32.8	36.9	87	33.4	5	14	112	0.01	29.906 
14:25	36.9	32.1	36.9	87	33.4	6	12	112	0.01	29.906 
14:30	36.9	32.1	36.9	87	33.4	6	13	112	0.01	29.897 
14:35	36.9	31.4	36.9	87	33.4	7	16	112	0.01	29.897 
14:40	36.8	31.3	36.8	87	33.3	7	16	112	0.01	29.897 
14:45	36.8	31.9	36.8	88	33.6	6	15	90	0.01	29.902 
14:50	36.9	32.1	36.9	88	33.7	6	13	90	0.01	29.902 
14:55	36.9	32.1	36.9	88	33.7	6	16	112	0.00	29.902 
15:00	36.8	32.7	36.8	89	33.9	5	12	112	0.00	29.895 
15:05	36.8	32.7	36.8	89	33.9	5	12	112	0.00	29.895 
15:10	36.9	32.8	36.9	89	34.0	5	12	112	0.01	29.895 
15:15	36.9	32.8	36.9	90	34.2	5	13	112	0.00	29.892 
15:20	36.9	32.1	36.9	90	34.2	6	12	112	0.01	29.892 
15:25	36.9	32.8	36.9	90	34.2	5	15	112	0.01	29.892 
15:30	36.9	32.1	36.9	91	34.5	6	13	112	0.00	29.887 
15:35	36.9	33.7	36.9	91	34.5	4	12	90	0.01	29.887 
15:40	36.8	31.9	36.8	91	34.4	6	12	112	0.01	29.887 
15:45	36.8	33.6	36.8	91	34.4	4	12	112	0.01	29.895 
15:50	36.8	32.7	36.8	91	34.4	5	11	90	0.01	29.895 
15:55	36.9	33.7	36.9	92	34.8	4	11	112	0.01	29.895 
16:00	37.0	32.2	37.0	92	34.9	6	12	112	0.02	29.878 
16:05	37.2	34.1	37.2	92	35.1	4	12	112	0.00	29.878 
16:10	37.3	34.2	37.3	92	35.2	4	11	112	0.00	29.878 
16:15	37.3	33.3	37.3	92	35.2	5	15	90	0.00	29.872 
16:20	37.3	32.5	37.3	92	35.2	6	14	112	0.00	29.872 
16:25	37.3	33.3	37.3	92	35.2	5	13	112	0.00	29.872 
16:30	37.2	32.4	37.2	92	35.1	6	16	112	0.00	29.860 
16:35	37.2	31.8	37.2	92	35.1	7	13	112	0.00	29.860 
16:40	37.2	31.8	37.2	91	34.8	7	15	112	0.00	29.860 
16:45	37.2	31.8	37.2	91	34.8	7	13	112	0.00	29.856 
16:50	37.3	32.5	37.3	91	34.9	6	14	112	0.00	29.856 
16:55	37.3	31.9	37.3	91	34.9	7	15	112	0.00	29.856 
17:00	37.5	33.5	37.5	91	35.1	5	13	112	0.00	29.854 
17:05	37.5	33.5	37.5	91	35.1	5	11	90	0.00	29.854 
17:10	37.5	32.8	37.5	91	35.1	6	12	112	0.00	29.854 
17:15	37.5	32.1	37.5	91	35.1	7	13	112	0.00	29.846 
17:20	37.5	33.5	37.5	92	35.4	5	17	112	0.00	29.846 
17:25	37.5	32.8	37.5	91	35.1	6	12	112	0.00	29.846 
17:30	37.5	32.1	37.5	92	35.4	7	15	112	0.00	29.845 
17:35	37.6	32.9	37.6	92	35.5	6	19	112	0.00	29.845 
17:40	37.5	32.1	37.5	91	35.1	7	17	112	0.00	29.845 
17:45	37.6	32.9	37.6	91	35.2	6	15	112	0.00	29.840 
17:50	37.6	32.2	37.6	91	35.2	7	13	90	0.00	29.840 
17:55	37.6	32.2	37.6	91	35.2	7	15	112	0.00	29.840 
18:00	37.8	33.1	37.8	91	35.4	6	14	112	0.00	29.835 
18:05	37.8	33.9	37.8	91	35.4	5	10	112	0.00	29.835 
18:10	37.9	32.6	37.9	91	35.5	7	15	112	0.00	29.835 
18:15	38.0	33.4	38.0	91	35.6	6	14	112	0.00	29.826 
18:20	38.2	33.6	38.2	92	36.1	6	16	90	0.00	29.826 
18:25	38.2	33.6	38.2	91	35.8	6	11	112	0.00	29.826 
18:30	38.2	33.0	38.2	91	35.8	7	15	90	0.00	29.836 
18:35	38.3	33.7	38.3	91	35.9	6	15	112	0.00	29.836 
18:40	38.3	33.7	38.3	91	35.9	6	15	90	0.00	29.836 
18:45	38.5	34.0	38.5	91	36.1	6	13	90	0.00	29.838 
18:50	38.5	34.0	38.5	91	36.1	6	14	90	0.00	29.838 
18:55	38.6	33.5	38.6	91	36.2	7	14	112	0.00	29.838 
19:00	38.6	33.5	38.6	91	36.2	7	15	90	0.00	29.827 
19:05	38.6	33.5	38.6	91	36.2	7	14	112	0.00	29.827 
19:10	38.6	32.9	38.6	92	36.5	8	14	90	0.00	29.827 
19:15	38.6	34.8	38.6	92	36.5	5	13	112	0.00	29.822 
19:20	38.8	33.7	38.8	92	36.7	7	17	112	0.00	29.822 
19:25	38.8	33.1	38.8	92	36.7	8	15	112	0.00	29.822 
19:30	38.8	33.7	38.8	92	36.7	7	14	112	0.00	29.825 
19:35	38.8	34.3	38.8	92	36.7	6	13	112	0.00	29.825 
19:40	38.9	35.2	38.9	92	36.8	5	15	112	0.00	29.825 
19:45	38.9	34.4	38.9	92	36.8	6	11	90	0.00	29.822 
19:50	38.9	34.4	38.9	92	36.8	6	15	90	0.00	29.822 
19:55	38.9	33.8	38.9	92	36.8	7	16	112	0.00	29.822 
20:00	39.1	34.7	39.1	92	37.0	6	12	112	0.00	29.830 
20:05	39.1	34.7	39.1	91	36.7	6	13	90	0.00	29.830 
20:10	39.1	34.7	39.1	91	36.7	6	12	90	0.00	29.830 
20:15	39.1	34.7	39.1	91	36.7	6	10	90	0.00	29.827 
20:20	39.1	34.7	39.1	92	37.0	6	14	90	0.00	29.827 
20:25	39.1	35.4	39.1	92	37.0	5	12	112	0.00	29.827 
20:30	39.1	34.7	39.1	92	37.0	6	11	112	0.01	29.824 
20:35	39.1	35.4	39.1	92	37.0	5	13	90	0.00	29.824 
20:40	38.9	34.4	38.9	92	36.8	6	12	112	0.01	29.824 
20:45	38.9	34.4	38.9	92	36.8	6	17	112	0.02	29.808 
20:50	38.9	33.2	38.9	93	37.1	8	14	112	0.06	29.808 
20:55	38.9	34.4	38.9	93	37.1	6	14	112	0.01	29.808 
21:00	38.9	34.4	38.9	93	37.1	6	17	112	0.01	29.806 
21:05	38.9	34.4	38.9	94	37.3	6	15	90	0.01	29.806 
21:10	39.1	34.7	39.1	94	37.5	6	11	112	0.00	29.806 
21:15	39.1	35.4	39.1	94	37.5	5	10	90	0.00	29.811 
21:20	39.2	35.5	39.2	94	37.6	5	11	90	0.01	29.811 
21:25	39.2	34.8	39.2	94	37.6	6	13	112	0.01	29.811 
21:30	39.2	34.8	39.2	94	37.6	6	14	90	0.00	29.805 
21:35	39.3	34.9	39.3	94	37.7	6	16	90	0.00	29.805 
21:40	39.3	34.9	39.3	94	37.7	6	12	112	0.01	29.805 
21:45	39.3	34.9	39.3	94	37.7	6	12	90	0.00	29.799 
21:50	39.5	35.9	39.5	95	38.2	5	13	112	0.00	29.799 
21:55	39.5	35.9	39.5	95	38.2	5	12	90	0.00	29.799 
22:00	39.6	35.3	39.6	95	38.3	6	11	90	0.01	29.804 
22:05	39.6	36.0	39.6	95	38.3	5	13	90	0.00	29.804 
22:10	39.6	36.9	39.6	95	38.3	4	10	112	0.00	29.804 
22:15	39.8	37.1	39.8	95	38.5	4	10	112	0.00	29.804 
22:20	39.8	37.1	39.8	95	38.5	4	9	90	0.01	29.804 
22:25	39.9	37.2	39.9	95	38.6	4	14	90	0.00	29.804 
22:30	39.9	39.9	39.9	95	38.6	3	9	112	0.00	29.804 
22:35	39.9	37.2	39.9	95	38.6	4	10	112	0.00	29.804 
22:40	40.1	40.1	40.1	95	38.8	3	7	90	0.01	29.804 
22:45	40.1	40.1	40.1	95	38.8	3	6	90	0.00	29.805 
22:50	40.1	40.1	40.1	95	38.8	2	5	90	0.00	29.805 
22:55	40.1	40.1	40.1	95	38.8	3	8	112	0.01	29.805 
23:00	40.1	40.1	40.1	95	38.8	2	6	112	0.01	29.803 
23:05	40.1	40.1	40.1	95	38.8	3	9	90	0.00	29.803 
23:10	40.1	40.1	40.1	95	38.8	2	5	90	0.01	29.803 
23:15	40.1	40.1	40.1	95	38.8	2	6	112	0.01	29.802 
23:20	40.1	40.1	40.1	95	38.8	2	6	112	0.00	29.802 
23:25	40.1	40.1	40.1	95	38.8	2	7	112	0.00	29.802 
23:30	40.1	40.1	40.1	95	38.8	3	6	112	0.00	29.794 
23:35	40.2	40.2	40.2	95	38.9	2	10	112	0.00	29.794 
23:40	40.2	40.2	40.2	95	38.9	2	6	112	0.00	29.794 
23:45	40.2	40.2	40.2	95	38.9	2	5	112	0.01	29.795 
23:50	40.2	40.2	40.2	95	38.9	2	6	112	0.00	29.795 
23:55	40.2	40.2	40.2	95	38.9	2	5	112	0.00	29.795 

CoCoRaHS
IN-AL-39
A2 Web Hosting
Creative Commons License
GoDaddy
search engine by freefind advanced

loaded 2018-11-20 03:27:33 • last modified 2010-11-18 10:43:29
Privacy PolicyDisclaimer
• wx.awcolley.com is powered by PmWiki v.2002016 •
• all content (unless otherwise noted) © 2018 A W Colley